createdAt,value
2024-03-07T00:00:40.938Z,9.40
2024-03-07T00:03:07.836Z,9.30
2024-03-07T00:05:34.724Z,9.30
2024-03-07T00:08:01.869Z,9.30
2024-03-07T00:10:28.756Z,9.40
2024-03-07T00:12:55.573Z,9.40
2024-03-07T00:15:22.531Z,9.30
2024-03-07T00:17:49.770Z,9.20
2024-03-07T00:20:20.789Z,9.40
2024-03-07T00:22:48.100Z,9.30
2024-03-07T00:25:16.238Z,9.20
2024-03-07T00:27:46.562Z,9.30
2024-03-07T00:30:20.064Z,9.20
2024-03-07T00:32:49.226Z,9.30
2024-03-07T00:35:16.547Z,9.20
2024-03-07T00:37:43.556Z,9.20
2024-03-07T00:40:11.608Z,9.10
2024-03-07T00:42:38.821Z,9.20
2024-03-07T00:45:06.692Z,9.20
2024-03-07T00:47:33.801Z,9.10
2024-03-07T00:50:01.536Z,9.20
2024-03-07T00:52:28.451Z,9.20
2024-03-07T00:54:55.276Z,9.20
2024-03-07T00:57:22.128Z,9.20
2024-03-07T00:59:50.193Z,9.20
2024-03-07T01:02:18.439Z,9.10
2024-03-07T01:04:45.688Z,9.10
2024-03-07T01:07:12.500Z,9.10
2024-03-07T01:09:39.455Z,9.10
2024-03-07T01:12:07.225Z,9.10
2024-03-07T01:14:34.260Z,9.00
2024-03-07T01:17:01.079Z,9.10
2024-03-07T01:19:27.923Z,9.10
2024-03-07T01:21:54.792Z,9.00
2024-03-07T01:24:21.870Z,9.00
2024-03-07T01:26:49.317Z,8.90
2024-03-07T01:29:17.015Z,8.90
2024-03-07T01:31:44.358Z,8.70
2024-03-07T01:34:11.241Z,8.80
2024-03-07T01:36:38.125Z,8.80
2024-03-07T01:39:05.343Z,8.80
2024-03-07T01:41:32.448Z,8.90
2024-03-07T01:43:59.460Z,8.80
2024-03-07T01:46:26.517Z,8.90
2024-03-07T01:48:54.025Z,8.80
2024-03-07T01:51:23.009Z,8.90
2024-03-07T01:53:50.352Z,8.80
2024-03-07T01:56:18.226Z,8.80
2024-03-07T01:58:50.794Z,8.70
2024-03-07T02:01:18.295Z,8.70
2024-03-07T02:03:45.098Z,8.80
2024-03-07T02:06:13.226Z,8.70
2024-03-07T02:08:40.762Z,8.80
2024-03-07T02:11:08.232Z,8.90
2024-03-07T02:13:36.150Z,9.00
2024-03-07T02:16:03.234Z,8.90
2024-03-07T02:18:30.340Z,8.90
2024-03-07T02:20:57.343Z,9.00
2024-03-07T02:23:24.241Z,9.10
2024-03-07T02:25:51.163Z,9.10
2024-03-07T02:28:18.023Z,9.20
2024-03-07T02:30:46.881Z,9.30
2024-03-07T02:33:14.031Z,9.20
2024-03-07T02:35:41.056Z,9.20
2024-03-07T02:38:08.261Z,9.20
2024-03-07T02:40:35.272Z,9.30
2024-03-07T02:43:04.718Z,9.40
2024-03-07T02:45:32.096Z,9.30
2024-03-07T02:47:59.097Z,9.40
2024-03-07T02:50:26.266Z,9.40
2024-03-07T02:52:54.093Z,9.40
2024-03-07T02:55:21.765Z,9.40
2024-03-07T02:57:49.149Z,9.30
2024-03-07T03:00:28.014Z,9.30
2024-03-07T03:02:55.367Z,9.20
2024-03-07T03:05:23.669Z,9.10
2024-03-07T03:07:56.950Z,9.00
2024-03-07T03:10:27.662Z,9.00
2024-03-07T03:12:55.968Z,8.80
2024-03-07T03:15:23.038Z,8.90
2024-03-07T03:17:50.212Z,8.90
2024-03-07T03:20:36.248Z,8.70
2024-03-07T03:23:11.983Z,8.90
2024-03-07T03:25:46.801Z,8.80
2024-03-07T03:28:13.784Z,8.70
2024-03-07T03:30:42.373Z,8.70
2024-03-07T03:33:09.467Z,8.70
2024-03-07T03:35:37.782Z,8.70
2024-03-07T03:38:05.293Z,8.80
2024-03-07T03:40:32.842Z,8.60
2024-03-07T03:42:59.969Z,8.60
2024-03-07T03:45:26.987Z,8.60
2024-03-07T03:47:54.569Z,8.40
2024-03-07T03:50:24.135Z,8.40
2024-03-07T03:52:51.039Z,8.50
2024-03-07T03:55:18.061Z,8.50
2024-03-07T03:57:48.333Z,8.30
2024-03-07T04:00:15.917Z,8.40
2024-03-07T04:02:44.742Z,8.40
2024-03-07T04:05:14.583Z,8.20
2024-03-07T04:07:45.375Z,8.40
2024-03-07T04:10:13.315Z,8.10
2024-03-07T04:12:41.587Z,8.40
2024-03-07T04:15:19.106Z,8.20
2024-03-07T04:17:47.959Z,8.20
2024-03-07T04:20:18.609Z,8.30
2024-03-07T04:22:46.523Z,8.20
2024-03-07T04:25:13.602Z,8.20
2024-03-07T04:27:41.465Z,8.30
2024-03-07T04:30:12.367Z,8.10
2024-03-07T04:32:40.542Z,8.20
2024-03-07T04:35:09.171Z,8.20
2024-03-07T04:37:37.640Z,8.00
2024-03-07T04:40:19.409Z,8.10
2024-03-07T04:42:49.885Z,8.10
2024-03-07T04:45:17.481Z,8.20
2024-03-07T04:47:48.868Z,8.10
2024-03-07T04:50:19.559Z,8.00
2024-03-07T04:52:48.623Z,8.20
2024-03-07T04:55:16.319Z,8.10
2024-03-07T04:57:43.270Z,8.10
2024-03-07T05:00:16.435Z,8.20
2024-03-07T05:02:46.283Z,8.20
2024-03-07T05:05:14.605Z,8.10
2024-03-07T05:07:41.823Z,8.20
2024-03-07T05:10:10.045Z,8.20
2024-03-07T05:12:38.412Z,8.10
2024-03-07T05:15:07.128Z,7.90
2024-03-07T05:17:36.476Z,8.20
2024-03-07T05:20:04.592Z,8.00
2024-03-07T05:22:31.975Z,8.10
2024-03-07T05:25:00.281Z,7.90
2024-03-07T05:27:29.175Z,7.90
2024-03-07T05:29:56.708Z,7.90
2024-03-07T05:32:28.529Z,8.10
2024-03-07T05:34:56.052Z,8.10
2024-03-07T05:37:23.368Z,7.90
2024-03-07T05:39:50.885Z,8.10
2024-03-07T05:42:17.893Z,7.90
2024-03-07T05:44:45.467Z,7.70
2024-03-07T05:47:14.961Z,8.00
2024-03-07T05:49:42.070Z,7.90
2024-03-07T05:52:09.039Z,7.90
2024-03-07T05:54:36.826Z,7.90
2024-03-07T05:57:04.044Z,7.90
2024-03-07T05:59:32.842Z,7.90
2024-03-07T06:01:59.921Z,7.80
2024-03-07T06:04:26.781Z,7.80
2024-03-07T06:06:53.916Z,8.00
2024-03-07T06:09:23.727Z,7.80
2024-03-07T06:11:51.204Z,7.80
2024-03-07T06:14:19.128Z,7.80
2024-03-07T06:16:46.161Z,7.80
2024-03-07T06:19:13.806Z,8.00
2024-03-07T06:21:42.297Z,8.10
2024-03-07T06:24:11.839Z,8.00
2024-03-07T06:26:46.628Z,7.90
2024-03-07T06:29:15.422Z,8.00
2024-03-07T06:31:42.441Z,8.00
2024-03-07T06:34:10.056Z,8.00
2024-03-07T06:36:37.137Z,8.10
2024-03-07T06:39:07.653Z,8.10
2024-03-07T06:41:35.218Z,8.10
2024-03-07T06:44:03.109Z,8.10
2024-03-07T06:46:30.625Z,8.10
2024-03-07T06:48:57.652Z,8.20
2024-03-07T06:51:26.236Z,8.10
2024-03-07T06:53:53.384Z,8.20
2024-03-07T06:56:20.707Z,8.20
2024-03-07T06:58:47.871Z,8.20
2024-03-07T07:01:17.407Z,8.30
2024-03-07T07:03:45.106Z,8.40
2024-03-07T07:06:12.559Z,8.60
2024-03-07T07:08:39.626Z,8.80
2024-03-07T07:11:06.781Z,9.00
2024-03-07T07:13:33.961Z,9.30
2024-03-07T07:16:00.972Z,9.50
2024-03-07T07:18:28.381Z,9.70
2024-03-07T07:20:55.713Z,9.80
2024-03-07T07:23:22.763Z,9.80
2024-03-07T07:25:49.662Z,9.80
2024-03-07T07:28:16.900Z,9.90
2024-03-07T07:30:46.027Z,9.90
2024-03-07T07:33:14.704Z,10.00
2024-03-07T07:35:42.457Z,9.90
2024-03-07T07:38:11.976Z,9.90
2024-03-07T07:40:40.064Z,9.90
2024-03-07T07:43:07.514Z,9.80
2024-03-07T07:45:37.326Z,9.90
2024-03-07T07:48:05.097Z,9.80
2024-03-07T07:50:35.894Z,9.90
2024-03-07T07:53:08.375Z,10.00
2024-03-07T07:55:35.272Z,9.90
2024-03-07T07:58:05.293Z,9.80
2024-03-07T08:00:32.970Z,10.00
2024-03-07T08:03:05.270Z,9.90
2024-03-07T08:05:34.333Z,10.00
2024-03-07T08:08:05.794Z,10.00
2024-03-07T08:10:34.254Z,10.10
2024-03-07T08:13:03.724Z,10.10
2024-03-07T08:15:32.183Z,10.10
2024-03-07T08:18:00.758Z,10.10
2024-03-07T08:20:29.607Z,10.20
2024-03-07T08:22:57.484Z,10.10
2024-03-07T08:25:26.017Z,10.00
2024-03-07T08:27:54.957Z,10.10
2024-03-07T08:30:22.016Z,10.10
2024-03-07T08:32:50.818Z,10.10
2024-03-07T08:35:17.833Z,10.20
2024-03-07T08:37:46.781Z,10.20
2024-03-07T08:40:26.403Z,10.20
2024-03-07T08:42:55.497Z,10.30
2024-03-07T08:45:22.350Z,10.30
2024-03-07T08:47:53.760Z,10.60
2024-03-07T08:50:21.374Z,10.90
2024-03-07T08:52:49.659Z,11.10
2024-03-07T08:55:18.326Z,11.30
2024-03-07T08:57:47.293Z,11.60
2024-03-07T09:00:24.759Z,11.90
2024-03-07T09:03:01.839Z,12.00
2024-03-07T09:05:31.191Z,12.20
2024-03-07T09:08:00.193Z,12.30
2024-03-07T09:10:27.513Z,12.50
2024-03-07T09:12:55.918Z,12.60
2024-03-07T09:15:24.664Z,12.80
2024-03-07T09:17:52.412Z,12.80
2024-03-07T09:20:21.139Z,12.80
2024-03-07T09:22:49.441Z,12.80
2024-03-07T09:25:17.915Z,12.90
2024-03-07T09:27:45.305Z,12.90
2024-03-07T09:30:25.340Z,13.00
2024-03-07T09:32:52.873Z,12.90
2024-03-07T09:35:20.237Z,13.00
2024-03-07T09:37:47.270Z,13.10
2024-03-07T09:40:15.524Z,13.00
2024-03-07T09:42:47.247Z,13.20
2024-03-07T09:45:19.938Z,13.00
2024-03-07T09:47:50.135Z,13.10
2024-03-07T09:50:23.357Z,13.10
2024-03-07T09:52:53.901Z,13.20
2024-03-07T09:55:22.829Z,13.10
2024-03-07T09:57:51.939Z,13.20
2024-03-07T10:00:24.475Z,13.20
2024-03-07T10:03:03.080Z,13.20
2024-03-07T10:05:31.925Z,13.10
2024-03-07T10:07:59.843Z,13.20
2024-03-07T10:10:27.570Z,13.30
2024-03-07T10:12:55.178Z,13.20
2024-03-07T10:15:23.644Z,13.20
2024-03-07T10:17:51.588Z,13.30
2024-03-07T10:20:23.431Z,13.30
2024-03-07T10:22:50.928Z,13.30
2024-03-07T10:25:26.727Z,13.40
2024-03-07T10:27:53.895Z,13.50
2024-03-07T10:30:24.455Z,13.50
2024-03-07T10:33:03.046Z,13.60
2024-03-07T10:35:31.334Z,13.90
2024-03-07T10:38:02.661Z,13.90
2024-03-07T10:40:30.788Z,14.00
2024-03-07T10:42:59.350Z,14.20
2024-03-07T10:45:31.600Z,14.20
2024-03-07T10:48:02.392Z,14.20
2024-03-07T10:50:50.699Z,14.40
2024-03-07T10:53:37.623Z,14.50
2024-03-07T10:56:31.548Z,14.50
2024-03-07T10:59:21.159Z,14.60
2024-03-07T11:02:33.921Z,14.70
2024-03-07T11:05:01.430Z,14.70
2024-03-07T11:07:29.293Z,14.80
2024-03-07T11:09:56.702Z,14.90
2024-03-07T11:12:25.610Z,14.90
2024-03-07T11:14:55.027Z,15.00
2024-03-07T11:17:23.532Z,15.00
2024-03-07T11:19:51.049Z,15.20
2024-03-07T11:22:35.351Z,15.20
2024-03-07T11:25:12.326Z,15.20
2024-03-07T11:27:40.926Z,15.30
2024-03-07T11:30:11.700Z,15.40
2024-03-07T11:32:42.712Z,15.40
2024-03-07T11:35:16.102Z,15.50
2024-03-07T11:37:50.386Z,15.40
2024-03-07T11:40:20.435Z,15.50
2024-03-07T11:42:49.274Z,15.60
2024-03-07T11:45:25.971Z,15.50
2024-03-07T11:48:13.198Z,15.60
2024-03-07T11:50:41.804Z,15.60
2024-03-07T11:53:10.329Z,15.60
2024-03-07T11:55:49.436Z,15.70
2024-03-07T11:58:18.157Z,15.80
2024-03-07T12:00:46.604Z,15.70
2024-03-07T12:03:19.911Z,15.80
2024-03-07T12:05:47.948Z,15.90
2024-03-07T12:08:15.354Z,15.90
2024-03-07T12:10:48.596Z,16.10
2024-03-07T12:13:17.224Z,16.10
2024-03-07T12:15:45.020Z,16.30
2024-03-07T12:18:15.742Z,16.40
2024-03-07T12:20:48.193Z,16.50
2024-03-07T12:23:20.457Z,16.50
2024-03-07T12:25:48.102Z,16.60
2024-03-07T12:28:19.035Z,16.60
2024-03-07T12:30:53.592Z,16.60
2024-03-07T12:33:22.149Z,16.70
2024-03-07T12:35:54.021Z,16.70
2024-03-07T12:38:24.018Z,16.80
2024-03-07T12:41:08.392Z,16.90
2024-03-07T12:43:35.868Z,17.00
2024-03-07T12:46:02.854Z,16.90
2024-03-07T12:48:29.782Z,16.80
2024-03-07T12:50:56.771Z,16.90
2024-03-07T12:53:26.681Z,16.90
2024-03-07T12:55:53.890Z,17.00
2024-03-07T12:58:26.782Z,17.00
2024-03-07T13:00:57.094Z,17.10
2024-03-07T13:03:31.672Z,17.20
2024-03-07T13:06:03.110Z,17.20
2024-03-07T13:08:33.292Z,17.20
2024-03-07T13:11:01.701Z,17.40
2024-03-07T13:13:29.383Z,17.40
2024-03-07T13:15:56.828Z,17.30
2024-03-07T13:18:24.569Z,17.30
2024-03-07T13:20:51.816Z,17.20
2024-03-07T13:23:18.788Z,17.30
2024-03-07T13:25:46.023Z,17.30
2024-03-07T13:28:25.784Z,17.30
2024-03-07T13:30:56.250Z,17.20
2024-03-07T13:33:26.140Z,17.20
2024-03-07T13:35:54.125Z,17.20
2024-03-07T13:38:21.530Z,17.30
2024-03-07T13:40:51.407Z,17.20
2024-03-07T13:43:19.434Z,17.10
2024-03-07T13:45:49.316Z,17.20
2024-03-07T13:48:18.955Z,17.20
2024-03-07T13:50:55.656Z,17.20
2024-03-07T13:53:26.358Z,17.10
2024-03-07T13:56:14.409Z,17.30
2024-03-07T13:59:06.138Z,17.20
2024-03-07T14:01:50.825Z,17.40
2024-03-07T14:04:21.284Z,17.40
2024-03-07T14:06:51.398Z,17.40
2024-03-07T14:09:55.806Z,17.30
2024-03-07T14:12:53.714Z,17.40
2024-03-07T14:16:02.137Z,17.40
2024-03-07T14:22:08.517Z,17.20
2024-03-07T14:24:54.531Z,17.10
2024-03-07T14:27:27.786Z,17.10
2024-03-07T14:30:27.272Z,17.10
2024-03-07T14:33:02.088Z,17.20
2024-03-07T14:36:02.465Z,17.10
2024-03-07T14:38:42.430Z,17.10
2024-03-07T14:41:13.753Z,17.10
2024-03-07T14:43:42.341Z,17.20
2024-03-07T14:46:15.172Z,17.10
2024-03-07T14:48:42.543Z,17.10
2024-03-07T14:51:14.828Z,17.10
2024-03-07T14:53:43.481Z,17.00
2024-03-07T14:56:13.626Z,17.00
2024-03-07T14:58:41.041Z,16.90
2024-03-07T15:01:08.367Z,16.90
2024-03-07T15:03:35.770Z,16.80
2024-03-07T15:06:04.237Z,16.90
2024-03-07T15:08:31.966Z,16.80
2024-03-07T15:11:10.719Z,16.80
2024-03-07T15:13:37.758Z,16.80
2024-03-07T15:16:08.235Z,16.80
2024-03-07T15:18:35.423Z,16.70
2024-03-07T15:21:02.420Z,16.70
2024-03-07T15:23:29.285Z,16.80
2024-03-07T15:28:23.138Z,16.60
2024-03-07T15:30:50.579Z,16.50
2024-03-07T15:33:23.276Z,16.40
2024-03-07T15:35:50.822Z,16.40
2024-03-07T15:38:19.035Z,16.40
2024-03-07T15:40:46.094Z,16.30
2024-03-07T15:43:14.069Z,16.30
2024-03-07T15:45:42.763Z,16.20
2024-03-07T15:48:11.888Z,16.20
2024-03-07T15:50:39.790Z,16.10
2024-03-07T15:53:07.832Z,16.30
2024-03-07T15:55:36.079Z,16.30
2024-03-07T15:58:07.563Z,16.20
2024-03-07T16:00:35.676Z,16.30
2024-03-07T16:03:11.676Z,16.30
2024-03-07T16:05:41.509Z,16.30
2024-03-07T16:08:10.733Z,16.20
2024-03-07T16:10:40.652Z,16.30
2024-03-07T16:13:15.395Z,16.30
2024-03-07T16:15:48.249Z,16.20
2024-03-07T16:18:16.577Z,16.10
2024-03-07T16:20:48.154Z,16.20
2024-03-07T16:23:17.355Z,16.10
2024-03-07T16:25:44.987Z,16.10
2024-03-07T16:28:14.852Z,16.00
2024-03-07T16:30:48.502Z,16.00
2024-03-07T16:33:17.887Z,15.90
2024-03-07T16:35:46.308Z,15.80
2024-03-07T16:38:13.385Z,15.80
2024-03-07T16:40:43.426Z,15.70
2024-03-07T16:43:13.389Z,15.60
2024-03-07T16:45:41.591Z,15.60
2024-03-07T16:48:13.097Z,15.50
2024-03-07T16:50:44.633Z,15.50
2024-03-07T16:53:12.411Z,15.40
2024-03-07T16:55:39.989Z,15.40
2024-03-07T16:58:13.706Z,15.20
2024-03-07T17:00:44.023Z,15.20
2024-03-07T17:03:13.296Z,15.00
2024-03-07T17:05:42.873Z,14.90
2024-03-07T17:08:15.503Z,14.80
2024-03-07T17:10:44.765Z,14.80
2024-03-07T17:13:13.945Z,14.70
2024-03-07T17:15:43.981Z,14.60
2024-03-07T17:18:12.424Z,14.50
2024-03-07T17:20:41.438Z,14.50
2024-03-07T17:23:09.001Z,14.40
2024-03-07T17:25:37.160Z,14.40
2024-03-07T17:28:04.774Z,14.30
2024-03-07T17:30:33.050Z,14.20
2024-03-07T17:33:01.239Z,14.20
2024-03-07T17:35:30.974Z,14.00
2024-03-07T17:37:58.978Z,14.10
2024-03-07T17:40:33.533Z,14.00
2024-03-07T17:43:03.712Z,14.00
2024-03-07T17:45:36.683Z,14.00
2024-03-07T17:48:06.198Z,13.90
2024-03-07T17:50:34.981Z,13.90
2024-03-07T17:53:11.385Z,13.80
2024-03-07T17:55:42.857Z,13.80
2024-03-07T17:58:12.237Z,13.80
2024-03-07T18:00:43.797Z,13.60
2024-03-07T18:03:11.298Z,13.60
2024-03-07T18:05:42.863Z,13.60
2024-03-07T18:08:27.582Z,13.60
2024-03-07T18:11:00.994Z,13.60
2024-03-07T18:13:28.168Z,13.60
2024-03-07T18:15:54.950Z,13.60
2024-03-07T18:18:26.136Z,13.60
2024-03-07T18:20:53.544Z,13.60
2024-03-07T18:23:22.454Z,13.70
2024-03-07T18:25:50.864Z,13.70
2024-03-07T18:28:21.777Z,13.70
2024-03-07T18:30:51.869Z,13.60
2024-03-07T18:33:19.616Z,13.60
2024-03-07T18:35:47.698Z,13.50
2024-03-07T18:38:15.813Z,13.50
2024-03-07T18:40:43.303Z,13.50
2024-03-07T18:43:13.654Z,13.40
2024-03-07T18:45:45.822Z,13.40
2024-03-07T18:48:14.610Z,13.30
2024-03-07T18:50:47.615Z,13.30
2024-03-07T18:53:20.098Z,13.20
2024-03-07T18:55:49.649Z,13.20
2024-03-07T18:58:18.117Z,13.10
2024-03-07T19:00:45.715Z,13.10
2024-03-07T19:03:16.633Z,13.00
2024-03-07T19:05:46.854Z,13.00
2024-03-07T19:08:23.889Z,12.90
2024-03-07T19:10:52.950Z,12.90
2024-03-07T19:13:23.844Z,12.90
2024-03-07T19:15:57.593Z,12.90
2024-03-07T19:18:25.174Z,12.80
2024-03-07T19:20:55.834Z,12.80
2024-03-07T19:23:25.648Z,12.80
2024-03-07T19:25:53.061Z,12.80
2024-03-07T19:28:20.106Z,12.80
2024-03-07T19:30:48.848Z,12.70
2024-03-07T19:33:16.116Z,12.70
2024-03-07T19:35:49.267Z,12.60
2024-03-07T19:38:16.831Z,12.70
2024-03-07T19:40:44.276Z,12.50
2024-03-07T19:43:11.679Z,12.50
2024-03-07T19:45:40.153Z,12.50
2024-03-07T19:48:11.012Z,12.50
2024-03-07T19:50:38.889Z,12.40
2024-03-07T19:53:10.012Z,12.60
2024-03-07T19:55:37.054Z,12.40
2024-03-07T19:58:04.016Z,12.40
2024-03-07T20:00:32.552Z,12.40
2024-03-07T20:03:08.241Z,12.30
2024-03-07T20:05:38.878Z,12.20
2024-03-07T20:08:07.549Z,12.30
2024-03-07T20:10:34.541Z,12.30
2024-03-07T20:13:01.587Z,12.30
2024-03-07T20:15:28.667Z,12.40
2024-03-07T20:17:56.503Z,12.20
2024-03-07T20:20:26.840Z,12.20
2024-03-07T20:22:53.872Z,12.20
2024-03-07T20:25:21.458Z,12.20
2024-03-07T20:27:57.418Z,12.10
2024-03-07T20:30:27.854Z,12.20
2024-03-07T20:32:55.654Z,12.20
2024-03-07T20:35:23.012Z,12.10
2024-03-07T20:37:50.386Z,12.20
2024-03-07T20:40:19.134Z,12.10
2024-03-07T20:42:46.104Z,12.20
2024-03-07T20:45:16.190Z,12.20
2024-03-07T20:47:45.656Z,12.20
2024-03-07T20:50:16.935Z,12.10
2024-03-07T20:52:48.131Z,12.10
2024-03-07T20:55:20.079Z,12.10
2024-03-07T20:57:50.009Z,12.00
2024-03-07T21:00:18.598Z,12.00
2024-03-07T21:02:46.276Z,11.90
2024-03-07T21:05:13.931Z,12.00
2024-03-07T21:07:42.593Z,11.90
2024-03-07T21:10:11.931Z,11.80
2024-03-07T21:12:41.904Z,11.80
2024-03-07T21:15:09.989Z,11.70
2024-03-07T21:17:41.825Z,11.70
2024-03-07T21:20:13.693Z,11.70
2024-03-07T21:22:41.603Z,11.60
2024-03-07T21:25:09.580Z,11.60
2024-03-07T21:27:39.002Z,11.50
2024-03-07T21:30:06.706Z,11.50
2024-03-07T21:32:33.835Z,11.40
2024-03-07T21:35:02.519Z,11.40
2024-03-07T21:37:29.391Z,11.30
2024-03-07T21:39:57.681Z,11.30
2024-03-07T21:42:24.935Z,11.40
2024-03-07T21:44:51.880Z,11.20
2024-03-07T21:47:18.793Z,11.30
2024-03-07T21:49:46.327Z,11.20
2024-03-07T21:52:18.476Z,11.10
2024-03-07T21:54:48.796Z,11.10
2024-03-07T21:57:16.280Z,11.10
2024-03-07T21:59:43.253Z,11.10
2024-03-07T22:02:14.730Z,11.10
2024-03-07T22:04:52.349Z,11.00
2024-03-07T22:07:20.374Z,11.00
2024-03-07T22:09:47.841Z,10.90
2024-03-07T22:12:16.852Z,11.00
2024-03-07T22:14:45.525Z,10.90
2024-03-07T22:17:12.561Z,10.90
2024-03-07T22:19:39.419Z,10.90
2024-03-07T22:22:07.162Z,10.90
2024-03-07T22:24:34.136Z,10.80
2024-03-07T22:27:01.681Z,10.80
2024-03-07T22:29:28.876Z,10.80
2024-03-07T22:31:55.829Z,10.80
2024-03-07T22:34:23.106Z,10.70
2024-03-07T22:36:50.472Z,10.70
2024-03-07T22:39:19.284Z,10.70
2024-03-07T22:41:49.553Z,10.70
2024-03-07T22:44:16.478Z,10.60
2024-03-07T22:46:43.619Z,10.60
2024-03-07T22:49:11.733Z,10.70
2024-03-07T22:51:39.914Z,10.60
2024-03-07T22:54:09.187Z,10.60
2024-03-07T22:56:37.225Z,10.60
2024-03-07T22:59:04.851Z,10.60
2024-03-07T23:01:33.088Z,10.60
2024-03-07T23:04:01.239Z,10.50
2024-03-07T23:06:33.561Z,10.50
2024-03-07T23:09:03.541Z,10.50
2024-03-07T23:11:30.712Z,10.40
2024-03-07T23:13:57.885Z,10.50
2024-03-07T23:16:28.720Z,10.50
2024-03-07T23:18:56.588Z,10.40
2024-03-07T23:21:25.254Z,10.40
2024-03-07T23:23:52.272Z,10.40
2024-03-07T23:26:19.145Z,10.40
2024-03-07T23:28:46.188Z,10.40
2024-03-07T23:31:13.196Z,10.30
2024-03-07T23:33:40.465Z,10.30
2024-03-07T23:36:08.032Z,10.30
2024-03-07T23:38:36.390Z,10.30
2024-03-07T23:41:03.370Z,10.30
2024-03-07T23:43:31.270Z,10.30
2024-03-07T23:45:59.343Z,10.30
2024-03-07T23:48:29.773Z,10.20
2024-03-07T23:50:56.930Z,10.20
2024-03-07T23:53:23.957Z,10.10
2024-03-07T23:55:53.191Z,10.20
2024-03-07T23:58:20.156Z,10.10
